Time;durP1;ratioP1;P1;durP2;ratioP2;P2;SDS_P1;SDS_P2;PMS_P1;PMS_P2;Temp;Humidity;BMP_temperature;BMP_pressure;BME280_temperature;BME280_humidity;BME280_pressure;Samples;Min_cycle;Max_cycle;Signal;HPM_P1;HPM_P2
2020/12/30 00:00:09;;;;;;;10.80;5.90;;;;;;;;;;4973967;28;20184;-71
2020/12/30 00:02:35;;;;;;;9.32;6.60;;;;;;;;;;4972701;28;20198;-71
2020/12/30 00:05:02;;;;;;;6.63;6.00;;;;;;;;;;4969787;28;20567;-72
2020/12/30 00:07:31;;;;;;;8.15;5.88;;;;;;;;;;4974010;28;20239;-72
2020/12/30 00:09:58;;;;;;;8.73;5.93;;;;;;;;;;4971718;28;20276;-72
2020/12/30 00:12:27;;;;;;;6.45;5.85;;;;;;;;;;4974188;28;20192;-72
2020/12/30 00:14:54;;;;;;;6.47;5.88;;;;;;;;;;4972575;28;20188;-71
2020/12/30 00:17:19;;;;;;;7.90;5.57;;;;;;;;;;4972759;28;20216;-71
2020/12/30 00:19:45;;;;;;;7.47;6.57;;;;;;;;;;4974175;28;20195;-71
2020/12/30 00:22:11;;;;;;;13.10;6.30;;;;;;;;;;4972219;28;20450;-71
2020/12/30 00:24:39;;;;;;;9.90;7.23;;;;;;;;;;4972948;28;20432;-71
2020/12/30 00:27:05;;;;;;;8.45;6.15;;;;;;;;;;4972460;28;20443;-72
2020/12/30 00:29:31;;;;;;;9.10;6.25;;;;;;;;;;4972284;28;20235;-72
2020/12/30 00:31:57;;;;;;;8.45;6.22;;;;;;;;;;4973274;28;20698;-71
2020/12/30 00:34:23;;;;;;;9.40;7.68;;;;;;;;;;4973171;28;20312;-72
2020/12/30 00:36:49;;;;;;;8.80;6.40;;;;;;;;;;4972177;28;20318;-71
2020/12/30 00:39:15;;;;;;;7.70;6.07;;;;;;;;;;4974451;28;20420;-71
2020/12/30 00:41:41;;;;;;;8.30;6.10;;;;;;;;;;4973553;28;20415;-72
2020/12/30 00:44:07;;;;;;;7.25;6.50;;;;;;;;;;4973242;28;20235;-72
2020/12/30 00:46:33;;;;;;;8.77;6.70;;;;;;;;;;4973746;28;20211;-71
2020/12/30 00:48:59;;;;;;;7.87;6.77;;;;;;;;;;4974098;28;20191;-71
2020/12/30 00:51:25;;;;;;;6.00;4.90;;;;;;;;;;4973736;28;20435;-71
2020/12/30 00:53:51;;;;;;;8.73;6.50;;;;;;;;;;4980400;28;20435;-72
2020/12/30 00:56:17;;;;;;;7.90;6.80;;;;;;;;;;4973262;28;20558;-72
2020/12/30 00:58:43;;;;;;;6.30;5.70;;;;;;;;;;4981200;28;20486;-71
2020/12/30 01:01:09;;;;;;;6.60;5.47;;;;;;;;;;4976221;28;20432;-72
2020/12/30 01:03:36;;;;;;;7.38;6.43;;;;;;;;;;4973575;28;20435;-72
2020/12/30 01:06:05;;;;;;;8.32;7.15;;;;;;;;;;4976569;28;20204;-72
2020/12/30 01:08:31;;;;;;;7.88;6.70;;;;;;;;;;4975607;28;20728;-72
2020/12/30 01:10:57;;;;;;;10.27;7.30;;;;;;;;;;4977426;28;20184;-71
2020/12/30 01:13:23;;;;;;;7.53;6.13;;;;;;;;;;4974618;28;20353;-71
2020/12/30 01:15:49;;;;;;;13.67;7.37;;;;;;;;;;4972369;28;20479;-71
2020/12/30 01:18:15;;;;;;;9.90;6.72;;;;;;;;;;4974823;28;20434;-71
2020/12/30 01:20:41;;;;;;;7.35;6.55;;;;;;;;;;4972934;28;20195;-71
2020/12/30 01:23:07;;;;;;;8.13;6.10;;;;;;;;;;4976737;28;20192;-71
2020/12/30 01:25:33;;;;;;;7.93;5.40;;;;;;;;;;4972919;28;20211;-72
2020/12/30 01:27:59;;;;;;;7.15;5.60;;;;;;;;;;4972978;28;20224;-71
2020/12/30 01:30:25;;;;;;;7.97;5.80;;;;;;;;;;4980157;28;20222;-72
2020/12/30 01:32:51;;;;;;;7.97;6.45;;;;;;;;;;4972432;28;20435;-71
2020/12/30 01:35:17;;;;;;;10.50;6.93;;;;;;;;;;4973783;28;20250;-72
2020/12/30 01:37:43;;;;;;;6.38;5.50;;;;;;;;;;4972510;28;20535;-72
2020/12/30 01:40:09;;;;;;;6.47;5.60;;;;;;;;;;4973544;28;20195;-72
2020/12/30 01:42:44;;;;;;;9.73;6.85;;;;;;;;;;4986589;28;20688;-72
2020/12/30 01:45:10;;;;;;;9.80;6.18;;;;;;;;;;4974492;28;20188;-71
2020/12/30 01:47:36;;;;;;;6.40;5.72;;;;;;;;;;4972526;28;20185;-72
2020/12/30 01:50:02;;;;;;;11.55;7.35;;;;;;;;;;4976802;28;20251;-71
2020/12/30 01:52:28;;;;;;;8.38;7.35;;;;;;;;;;4976237;28;20194;-72
2020/12/30 01:54:54;;;;;;;10.18;6.38;;;;;;;;;;4971867;28;20573;-72
2020/12/30 01:57:20;;;;;;;7.70;6.63;;;;;;;;;;4973431;28;20216;-72
2020/12/30 01:59:48;;;;;;;12.93;7.30;;;;;;;;;;4973464;28;20232;-72
2020/12/30 02:02:15;;;;;;;8.23;6.45;;;;;;;;;;4977398;28;20211;-71
2020/12/30 02:04:44;;;;;;;8.30;7.13;;;;;;;;;;4978290;28;20168;-71
2020/12/30 02:07:10;;;;;;;9.48;7.28;;;;;;;;;;4953334;28;20235;-72
2020/12/30 02:09:36;;;;;;;7.78;6.88;;;;;;;;;;4965352;28;20190;-71
2020/12/30 02:12:04;;;;;;;8.35;7.45;;;;;;;;;;4972150;28;20212;-72
2020/12/30 02:14:30;;;;;;;10.40;7.97;;;;;;;;;;4971528;28;20176;-71
2020/12/30 02:16:56;;;;;;;9.20;7.37;;;;;;;;;;4971186;28;20581;-72
2020/12/30 02:19:22;;;;;;;8.77;6.95;;;;;;;;;;4971943;28;20478;-71
2020/12/30 02:21:49;;;;;;;9.10;7.03;;;;;;;;;;4971627;28;20271;-72
2020/12/30 02:24:27;;;;;;;8.55;6.40;;;;;;;;;;4975173;28;20671;-71
2020/12/30 02:26:53;;;;;;;12.23;7.53;;;;;;;;;;4971249;28;20576;-72
2020/12/30 02:29:19;;;;;;;7.70;6.63;;;;;;;;;;4969627;28;20188;-71
2020/12/30 02:31:45;;;;;;;10.80;6.88;;;;;;;;;;4971865;28;20798;-71
2020/12/30 02:34:11;;;;;;;9.07;6.93;;;;;;;;;;4972783;28;20188;-71
2020/12/30 02:36:37;;;;;;;9.53;7.37;;;;;;;;;;4974535;28;20475;-72
2020/12/30 02:39:03;;;;;;;8.63;5.97;;;;;;;;;;4981760;28;20430;-71
2020/12/30 02:41:29;;;;;;;11.57;8.23;;;;;;;;;;4971339;28;20433;-71
2020/12/30 02:43:55;;;;;;;8.10;6.20;;;;;;;;;;4972831;28;20610;-72
2020/12/30 02:46:21;;;;;;;7.78;6.20;;;;;;;;;;4972083;28;20880;-73
2020/12/30 02:48:47;;;;;;;8.53;6.50;;;;;;;;;;4982240;28;20234;-72
2020/12/30 02:51:13;;;;;;;8.68;7.50;;;;;;;;;;4972390;28;20423;-71
2020/12/30 02:53:39;;;;;;;11.10;7.97;;;;;;;;;;4975503;28;20525;-73
2020/12/30 02:56:05;;;;;;;9.35;7.97;;;;;;;;;;4977270;28;20207;-72
2020/12/30 02:58:31;;;;;;;8.37;7.03;;;;;;;;;;4973953;28;20721;-72
2020/12/30 03:00:57;;;;;;;7.70;6.83;;;;;;;;;;4975595;28;20802;-73
2020/12/30 03:03:24;;;;;;;9.47;7.23;;;;;;;;;;4974559;28;20447;-72
2020/12/30 03:05:50;;;;;;;12.30;7.93;;;;;;;;;;4972477;28;20450;-73
2020/12/30 03:08:16;;;;;;;13.10;7.60;;;;;;;;;;4973148;28;20196;-73
2020/12/30 03:10:42;;;;;;;10.17;6.90;;;;;;;;;;4971431;28;20493;-71
2020/12/30 03:13:08;;;;;;;7.53;6.73;;;;;;;;;;4975393;28;20479;-73
2020/12/30 03:15:34;;;;;;;11.93;7.60;;;;;;;;;;4972302;28;20448;-72
2020/12/30 03:17:59;;;;;;;8.23;6.17;;;;;;;;;;4972407;28;20431;-72
2020/12/30 03:20:25;;;;;;;10.20;8.83;;;;;;;;;;4972463;28;20441;-72
2020/12/30 03:22:51;;;;;;;8.93;7.17;;;;;;;;;;4970932;28;20435;-72
2020/12/30 03:25:17;;;;;;;9.10;7.50;;;;;;;;;;4975501;28;20441;-73
2020/12/30 03:27:43;;;;;;;9.25;7.22;;;;;;;;;;4975457;28;20441;-73
2020/12/30 03:30:09;;;;;;;11.10;8.63;;;;;;;;;;4975476;28;20192;-73
2020/12/30 03:32:35;;;;;;;8.70;6.33;;;;;;;;;;4972444;28;20474;-73
2020/12/30 03:35:01;;;;;;;10.33;7.57;;;;;;;;;;4983497;28;20531;-73
2020/12/30 03:37:28;;;;;;;16.30;7.03;;;;;;;;;;4971855;28;20463;-73
2020/12/30 03:39:54;;;;;;;9.95;6.95;;;;;;;;;;4972765;28;20428;-73
2020/12/30 03:42:20;;;;;;;8.57;7.03;;;;;;;;;;4981959;28;20195;-72
2020/12/30 03:44:46;;;;;;;8.93;8.10;;;;;;;;;;4977826;28;20581;-72
2020/12/30 03:47:12;;;;;;;7.60;6.60;;;;;;;;;;4973714;28;20459;-72
2020/12/30 03:49:38;;;;;;;9.57;8.30;;;;;;;;;;4974508;28;20427;-72
2020/12/30 03:52:04;;;;;;;9.13;7.07;;;;;;;;;;4971079;28;20750;-73
2020/12/30 03:54:30;;;;;;;7.70;6.93;;;;;;;;;;4970705;28;20541;-72
2020/12/30 03:56:56;;;;;;;8.50;6.50;;;;;;;;;;4980064;28;20219;-73
2020/12/30 03:59:22;;;;;;;8.10;7.27;;;;;;;;;;4987580;28;20455;-72
2020/12/30 04:01:48;;;;;;;8.80;7.30;;;;;;;;;;4980387;28;20497;-73
2020/12/30 04:04:14;;;;;;;10.43;7.33;;;;;;;;;;4978796;28;20180;-72
2020/12/30 04:06:43;;;;;;;9.17;6.87;;;;;;;;;;4975029;28;20485;-73
2020/12/30 04:09:09;;;;;;;8.55;7.60;;;;;;;;;;4975434;28;20433;-73
2020/12/30 04:11:35;;;;;;;8.35;6.85;;;;;;;;;;4974906;28;20183;-73
2020/12/30 04:14:01;;;;;;;9.83;7.23;;;;;;;;;;4978686;28;20283;-73
2020/12/30 04:16:27;;;;;;;8.88;7.20;;;;;;;;;;4976842;28;20474;-73
2020/12/30 04:18:53;;;;;;;12.93;7.85;;;;;;;;;;4977029;28;20180;-72
2020/12/30 04:21:20;;;;;;;8.27;7.47;;;;;;;;;;4985770;28;20200;-73
2020/12/30 04:23:46;;;;;;;10.70;8.05;;;;;;;;;;4980255;28;20455;-73
2020/12/30 04:26:13;;;;;;;8.40;7.60;;;;;;;;;;4969540;28;20687;-72
2020/12/30 04:28:39;;;;;;;7.95;6.70;;;;;;;;;;4973808;28;20424;-72
2020/12/30 04:31:05;;;;;;;10.43;7.32;;;;;;;;;;4971936;28;20184;-72
2020/12/30 04:33:31;;;;;;;8.45;7.00;;;;;;;;;;4975535;28;20215;-72
2020/12/30 04:35:57;;;;;;;11.07;7.38;;;;;;;;;;4973727;28;20559;-72
2020/12/30 04:38:23;;;;;;;10.87;8.20;;;;;;;;;;4973781;28;20188;-73
2020/12/30 04:40:49;;;;;;;9.40;7.93;;;;;;;;;;4974064;28;20424;-72
2020/12/30 04:43:15;;;;;;;11.03;7.77;;;;;;;;;;4986733;28;20525;-73
2020/12/30 04:45:42;;;;;;;8.45;7.22;;;;;;;;;;4973835;28;20494;-71
2020/12/30 04:48:10;;;;;;;9.77;7.00;;;;;;;;;;4982030;28;20206;-73
2020/12/30 04:50:35;;;;;;;8.40;7.50;;;;;;;;;;4975379;28;20180;-73
2020/12/30 04:53:02;;;;;;;12.63;8.00;;;;;;;;;;4974736;28;20184;-73
2020/12/30 04:55:31;;;;;;;9.77;7.35;;;;;;;;;;4973235;28;20439;-73
2020/12/30 04:58:07;;;;;;;10.32;7.45;;;;;;;;;;4974977;28;20180;-73
2020/12/30 05:00:37;;;;;;;7.35;6.50;;;;;;;;;;4973664;28;20168;-73
2020/12/30 05:03:07;;;;;;;10.65;7.93;;;;;;;;;;4973900;28;20180;-72
2020/12/30 05:05:34;;;;;;;9.95;8.25;;;;;;;;;;4971904;28;20691;-73
2020/12/30 05:08:00;;;;;;;11.95;7.95;;;;;;;;;;4970149;28;20204;-74
2020/12/30 05:10:26;;;;;;;9.68;8.20;;;;;;;;;;4973379;28;20548;-72
2020/12/30 05:12:53;;;;;;;9.50;8.50;;;;;;;;;;4976950;28;20187;-73
2020/12/30 05:15:20;;;;;;;10.23;7.88;;;;;;;;;;4975607;28;20254;-74
2020/12/30 05:17:45;;;;;;;9.52;8.52;;;;;;;;;;4977096;28;20789;-73
2020/12/30 05:20:11;;;;;;;9.17;7.03;;;;;;;;;;4972248;28;20184;-73
2020/12/30 05:22:37;;;;;;;11.10;7.95;;;;;;;;;;4990241;28;20510;-73
2020/12/30 05:25:04;;;;;;;8.87;7.13;;;;;;;;;;4979783;28;20176;-73
2020/12/30 05:27:30;;;;;;;8.20;7.30;;;;;;;;;;4973328;28;20424;-73
2020/12/30 05:29:57;;;;;;;10.47;7.37;;;;;;;;;;4973103;28;20206;-74
2020/12/30 05:32:23;;;;;;;13.32;8.52;;;;;;;;;;4972083;28;21018;-73
2020/12/30 05:34:49;;;;;;;8.27;7.28;;;;;;;;;;4974022;28;20212;-73
2020/12/30 05:37:15;;;;;;;10.30;7.30;;;;;;;;;;4973468;28;20589;-73
2020/12/30 05:39:41;;;;;;;7.68;6.97;;;;;;;;;;4973880;28;20424;-73
2020/12/30 05:42:13;;;;;;;10.02;7.25;;;;;;;;;;4973217;28;20264;-73
2020/12/30 05:44:40;;;;;;;10.48;7.88;;;;;;;;;;4974390;28;20597;-73
2020/12/30 05:47:10;;;;;;;9.30;6.82;;;;;;;;;;4973653;28;20314;-73
2020/12/30 05:49:36;;;;;;;12.65;9.48;;;;;;;;;;4972058;28;20457;-76
2020/12/30 05:52:19;;;;;;;11.10;9.00;;;;;;;;;;4972650;28;20184;-75
2020/12/30 05:54:49;;;;;;;10.02;8.13;;;;;;;;;;4973291;28;20431;-76
2020/12/30 05:57:21;;;;;;;10.32;8.20;;;;;;;;;;4980947;28;20709;-75
2020/12/30 05:59:47;;;;;;;8.75;7.43;;;;;;;;;;4971865;28;20333;-75
2020/12/30 06:02:13;;;;;;;13.23;7.55;;;;;;;;;;4970909;28;20553;-75
2020/12/30 06:04:39;;;;;;;9.05;7.32;;;;;;;;;;4971860;28;20223;-75
2020/12/30 06:07:05;;;;;;;13.80;9.02;;;;;;;;;;4972496;28;20236;-76
2020/12/30 06:09:37;;;;;;;10.90;8.10;;;;;;;;;;4972890;28;20774;-76
2020/12/30 06:12:05;;;;;;;11.82;8.32;;;;;;;;;;4972620;28;20526;-76
2020/12/30 06:14:31;;;;;;;12.20;7.78;;;;;;;;;;4972214;28;20560;-75
2020/12/30 06:17:00;;;;;;;9.68;7.28;;;;;;;;;;4971854;28;20223;-76
2020/12/30 06:19:27;;;;;;;10.07;7.20;;;;;;;;;;4970972;28;20533;-76
2020/12/30 06:21:54;;;;;;;10.38;7.75;;;;;;;;;;4953564;28;20169;-76
2020/12/30 06:24:20;;;;;;;11.00;9.60;;;;;;;;;;4962473;28;20238;-76
2020/12/30 06:26:45;;;;;;;11.43;8.37;;;;;;;;;;4971052;28;20240;-75
2020/12/30 06:29:11;;;;;;;9.90;7.87;;;;;;;;;;4970266;28;20936;-76
2020/12/30 06:31:44;;;;;;;15.80;9.35;;;;;;;;;;4986519;28;20993;-76
2020/12/30 06:34:10;;;;;;;10.70;7.75;;;;;;;;;;4972056;28;20184;-75
2020/12/30 06:36:36;;;;;;;10.75;8.32;;;;;;;;;;4972815;28;20681;-75
2020/12/30 06:39:15;;;;;;;12.85;9.32;;;;;;;;;;4972101;28;20180;-76
2020/12/30 06:41:59;;;;;;;14.52;9.15;;;;;;;;;;4992848;28;20194;-77
2020/12/30 06:44:41;;;;;;;13.60;9.27;;;;;;;;;;4969493;28;20216;-76
2020/12/30 06:47:09;;;;;;;13.07;9.00;;;;;;;;;;4971854;28;20224;-75
2020/12/30 06:49:35;;;;;;;13.98;8.88;;;;;;;;;;4972462;28;20219;-77
2020/12/30 06:52:01;;;;;;;13.80;8.77;;;;;;;;;;4971683;28;20230;-76
2020/12/30 06:54:46;;;;;;;9.17;7.87;;;;;;;;;;4971103;28;20192;-77
2020/12/30 06:57:32;;;;;;;15.70;9.88;;;;;;;;;;4972519;28;20486;-75
2020/12/30 06:59:58;;;;;;;15.65;8.80;;;;;;;;;;4971784;28;20233;-77
2020/12/30 07:02:23;;;;;;;11.50;8.27;;;;;;;;;;4972219;28;20624;-76
2020/12/30 07:05:02;;;;;;;11.40;8.33;;;;;;;;;;4971812;28;20242;-77
2020/12/30 07:07:28;;;;;;;13.38;9.23;;;;;;;;;;4972361;28;20590;-76
2020/12/30 07:09:54;;;;;;;14.57;9.10;;;;;;;;;;4972907;28;20195;-76
2020/12/30 07:12:20;;;;;;;11.27;8.90;;;;;;;;;;4975432;28;20187;-76
2020/12/30 07:14:46;;;;;;;11.20;8.30;;;;;;;;;;4970579;28;20442;-76
2020/12/30 07:17:12;;;;;;;17.30;9.97;;;;;;;;;;4971690;28;20475;-76
2020/12/30 07:19:41;;;;;;;14.07;9.13;;;;;;;;;;4972273;28;20440;-75
2020/12/30 07:22:08;;;;;;;15.50;9.65;;;;;;;;;;4972192;28;20512;-76
2020/12/30 07:24:40;;;;;;;15.82;9.35;;;;;;;;;;4971586;28;20824;-77
2020/12/30 07:27:07;;;;;;;15.65;9.85;;;;;;;;;;4972604;28;20208;-76
2020/12/30 07:29:34;;;;;;;13.40;10.27;;;;;;;;;;4972298;28;20590;-77
2020/12/30 07:32:01;;;;;;;15.68;10.15;;;;;;;;;;4971633;28;20207;-77
2020/12/30 07:34:29;;;;;;;12.98;9.57;;;;;;;;;;4970656;28;20203;-77
2020/12/30 07:36:55;;;;;;;25.30;11.15;;;;;;;;;;4972252;28;20243;-77
2020/12/30 07:39:25;;;;;;;14.55;10.32;;;;;;;;;;4972427;28;20179;-76
2020/12/30 07:41:51;;;;;;;18.85;10.52;;;;;;;;;;4953766;28;20187;-76
2020/12/30 07:44:17;;;;;;;16.55;10.75;;;;;;;;;;4978100;28;20177;-77
2020/12/30 07:46:43;;;;;;;15.35;9.85;;;;;;;;;;4975476;28;20259;-75
2020/12/30 07:49:14;;;;;;;16.02;11.63;;;;;;;;;;4975656;28;20673;-76
2020/12/30 07:51:50;;;;;;;18.70;12.30;;;;;;;;;;4974870;28;20188;-77
2020/12/30 07:54:17;;;;;;;18.23;12.63;;;;;;;;;;4987506;28;20183;-75
2020/12/30 07:56:43;;;;;;;18.85;10.27;;;;;;;;;;4974852;28;20235;-76
2020/12/30 07:59:09;;;;;;;17.52;11.40;;;;;;;;;;4975134;28;20251;-76
2020/12/30 08:01:35;;;;;;;16.40;10.35;;;;;;;;;;4966412;28;20230;-76
2020/12/30 08:04:10;;;;;;;13.03;9.87;;;;;;;;;;4973165;28;20672;-76
2020/12/30 08:06:44;;;;;;;12.90;9.60;;;;;;;;;;4974209;28;20478;-76
2020/12/30 08:09:11;;;;;;;15.98;10.65;;;;;;;;;;4972965;28;20180;-75
2020/12/30 08:11:36;;;;;;;19.67;11.18;;;;;;;;;;4975224;28;20527;-76
2020/12/30 08:14:09;;;;;;;14.30;10.23;;;;;;;;;;4974370;28;20326;-76
2020/12/30 08:16:35;;;;;;;12.63;8.15;;;;;;;;;;4974776;28;21070;-76
2020/12/30 08:19:01;;;;;;;15.05;10.23;;;;;;;;;;4974774;28;20184;-76
2020/12/30 08:21:27;;;;;;;13.00;9.93;;;;;;;;;;4973118;28;20184;-76
2020/12/30 08:24:06;;;;;;;15.55;10.93;;;;;;;;;;4975646;28;20182;-76
2020/12/30 08:26:34;;;;;;;15.65;9.98;;;;;;;;;;4970756;28;20676;-77
2020/12/30 08:29:00;;;;;;;16.90;10.00;;;;;;;;;;4971908;28;20526;-76
2020/12/30 08:31:30;;;;;;;14.07;10.50;;;;;;;;;;4967796;28;20195;-77
2020/12/30 08:33:56;;;;;;;12.38;9.80;;;;;;;;;;4967293;28;20440;-76
2020/12/30 08:36:25;;;;;;;14.35;10.82;;;;;;;;;;4989356;28;20242;-77
2020/12/30 08:38:52;;;;;;;15.40;9.98;;;;;;;;;;4975415;28;20188;-77
2020/12/30 08:41:23;;;;;;;17.50;11.52;;;;;;;;;;4973160;28;20208;-76
2020/12/30 08:43:50;;;;;;;13.63;9.70;;;;;;;;;;4975972;28;20417;-77
2020/12/30 08:46:20;;;;;;;14.77;9.90;;;;;;;;;;4973232;28;20471;-76
2020/12/30 08:48:47;;;;;;;13.65;10.70;;;;;;;;;;4975603;28;20188;-77
2020/12/30 08:51:25;;;;;;;12.90;9.77;;;;;;;;;;4974710;28;20183;-76
2020/12/30 08:53:51;;;;;;;11.68;8.52;;;;;;;;;;4973793;28;20625;-76
2020/12/30 08:56:19;;;;;;;10.75;8.15;;;;;;;;;;4972934;28;20239;-76
2020/12/30 08:58:51;;;;;;;11.43;9.40;;;;;;;;;;4976069;28;20172;-76
2020/12/30 09:01:23;;;;;;;12.00;9.27;;;;;;;;;;4975451;28;20180;-77
2020/12/30 09:03:50;;;;;;;10.75;8.00;;;;;;;;;;4973936;28;20227;-76
2020/12/30 09:06:29;;;;;;;15.82;9.25;;;;;;;;;;4975556;28;20684;-77
2020/12/30 09:08:55;;;;;;;12.15;8.25;;;;;;;;;;4969627;28;20246;-76
2020/12/30 09:11:21;;;;;;;12.73;9.30;;;;;;;;;;4974788;28;20263;-75
2020/12/30 09:13:47;;;;;;;11.10;7.80;;;;;;;;;;4973017;28;20193;-76
2020/12/30 09:16:13;;;;;;;10.07;7.90;;;;;;;;;;4975257;28;20206;-76
2020/12/30 09:18:39;;;;;;;11.53;9.17;;;;;;;;;;4987277;28;20179;-76
2020/12/30 09:21:19;;;;;;;12.40;7.47;;;;;;;;;;4981801;28;20923;-76
2020/12/30 09:23:45;;;;;;;10.77;7.88;;;;;;;;;;4978512;28;20203;-76
2020/12/30 09:26:11;;;;;;;9.40;7.33;;;;;;;;;;4980651;28;20291;-77
2020/12/30 09:28:37;;;;;;;11.20;8.33;;;;;;;;;;4970417;28;20448;-77
2020/12/30 09:31:06;;;;;;;9.70;6.40;;;;;;;;;;4973023;28;20442;-76
2020/12/30 09:33:33;;;;;;;11.85;8.18;;;;;;;;;;4972688;28;20435;-75
2020/12/30 09:36:06;;;;;;;13.60;8.90;;;;;;;;;;4973681;28;20608;-76
2020/12/30 09:38:32;;;;;;;10.30;8.48;;;;;;;;;;4963007;28;20168;-76
2020/12/30 09:40:58;;;;;;;11.48;8.50;;;;;;;;;;4973753;28;20176;-76
2020/12/30 09:43:25;;;;;;;8.38;5.65;;;;;;;;;;4970764;28;20184;-76
2020/12/30 09:46:00;;;;;;;9.80;7.15;;;;;;;;;;4964736;28;20276;-76
2020/12/30 09:48:26;;;;;;;11.50;8.85;;;;;;;;;;4976193;28;20190;-76
2020/12/30 09:50:52;;;;;;;9.95;7.40;;;;;;;;;;4971683;28;20184;-76
2020/12/30 09:53:19;;;;;;;11.50;7.30;;;;;;;;;;4967816;28;20188;-76
2020/12/30 09:55:50;;;;;;;13.05;7.45;;;;;;;;;;4970364;28;20648;-77
2020/12/30 09:58:16;;;;;;;13.13;7.55;;;;;;;;;;4971404;28;20655;-75
2020/12/30 10:00:43;;;;;;;13.98;8.60;;;;;;;;;;4970579;28;20184;-76
2020/12/30 10:03:09;;;;;;;11.52;8.07;;;;;;;;;;4972748;28;20180;-76
2020/12/30 10:05:35;;;;;;;12.80;7.53;;;;;;;;;;4971417;28;20867;-76
2020/12/30 10:08:02;;;;;;;10.32;7.03;;;;;;;;;;4973315;28;20219;-76
2020/12/30 10:10:28;;;;;;;9.48;8.18;;;;;;;;;;4974494;28;20807;-77
2020/12/30 10:12:54;;;;;;;11.10;7.88;;;;;;;;;;4954857;28;20196;-75
2020/12/30 10:15:20;;;;;;;8.40;6.95;;;;;;;;;;4970025;28;20630;-76
2020/12/30 10:17:46;;;;;;;11.35;8.43;;;;;;;;;;4972710;28;20203;-76
2020/12/30 10:20:13;;;;;;;9.20;7.47;;;;;;;;;;4971600;28;20652;-76
2020/12/30 10:22:40;;;;;;;10.93;7.50;;;;;;;;;;4971182;28;20668;-76
2020/12/30 10:25:06;;;;;;;8.63;7.57;;;;;;;;;;4970416;28;20180;-76
2020/12/30 10:27:33;;;;;;;13.35;8.52;;;;;;;;;;4972518;28;20192;-76
2020/12/30 10:29:59;;;;;;;11.13;7.75;;;;;;;;;;4976626;28;20187;-76
2020/12/30 10:32:25;;;;;;;10.10;7.72;;;;;;;;;;4971900;28;20188;-76
2020/12/30 10:34:51;;;;;;;8.23;7.27;;;;;;;;;;4966928;28;20211;-76
2020/12/30 10:37:17;;;;;;;13.03;8.30;;;;;;;;;;4970124;28;20470;-76
2020/12/30 10:39:45;;;;;;;7.70;6.40;;;;;;;;;;4971626;28;21001;-76
2020/12/30 10:42:11;;;;;;;10.10;7.85;;;;;;;;;;4961963;28;20180;-76
2020/12/30 10:44:37;;;;;;;13.38;8.20;;;;;;;;;;4971079;28;20263;-76
2020/12/30 10:47:03;;;;;;;9.52;6.70;;;;;;;;;;4970999;28;20234;-76
2020/12/30 10:49:29;;;;;;;9.35;5.88;;;;;;;;;;4971150;28;20184;-76
2020/12/30 10:51:55;;;;;;;10.73;7.60;;;;;;;;;;4968220;28;20192;-77
2020/12/30 10:54:21;;;;;;;8.60;6.53;;;;;;;;;;4970764;28;20462;-76
2020/12/30 10:56:51;;;;;;;11.60;6.28;;;;;;;;;;4970776;28;20510;-77
2020/12/30 10:59:17;;;;;;;12.30;7.85;;;;;;;;;;4971254;28;20180;-76
2020/12/30 11:01:43;;;;;;;8.70;7.25;;;;;;;;;;4969232;28;20250;-77
2020/12/30 11:04:10;;;;;;;9.75;6.60;;;;;;;;;;4971135;28;20275;-77
2020/12/30 11:06:38;;;;;;;7.97;6.45;;;;;;;;;;4972085;28;20212;-76
2020/12/30 11:09:05;;;;;;;10.15;7.88;;;;;;;;;;4974879;28;20400;-77
2020/12/30 11:11:31;;;;;;;11.38;7.55;;;;;;;;;;4980259;28;20184;-76
2020/12/30 11:13:57;;;;;;;9.43;7.27;;;;;;;;;;4973188;28;20527;-77
2020/12/30 11:16:23;;;;;;;10.80;7.83;;;;;;;;;;4978259;28;20889;-77
2020/12/30 11:18:48;;;;;;;10.10;7.10;;;;;;;;;;4973470;28;20424;-77
2020/12/30 11:21:14;;;;;;;8.57;6.70;;;;;;;;;;4972942;28;21117;-77
2020/12/30 11:23:40;;;;;;;10.50;7.20;;;;;;;;;;4974354;28;20969;-76
2020/12/30 11:26:07;;;;;;;11.27;7.63;;;;;;;;;;4972642;28;20486;-77
2020/12/30 11:28:33;;;;;;;10.32;6.63;;;;;;;;;;4975028;28;20526;-77
2020/12/30 11:30:59;;;;;;;10.35;7.00;;;;;;;;;;4973468;28;20183;-77
2020/12/30 11:33:25;;;;;;;11.80;7.30;;;;;;;;;;4974024;28;20267;-77
2020/12/30 11:35:51;;;;;;;8.90;7.65;;;;;;;;;;4972495;28;20215;-77
2020/12/30 11:38:17;;;;;;;10.33;7.67;;;;;;;;;;4974064;28;20188;-77
2020/12/30 11:40:43;;;;;;;11.80;8.10;;;;;;;;;;4972932;28;20471;-76
2020/12/30 11:43:09;;;;;;;14.55;8.35;;;;;;;;;;4972422;28;20288;-76
2020/12/30 11:45:35;;;;;;;12.48;7.55;;;;;;;;;;4974789;28;20212;-76
2020/12/30 11:48:01;;;;;;;13.80;9.23;;;;;;;;;;4972013;28;20199;-76
2020/12/30 11:50:28;;;;;;;10.85;7.90;;;;;;;;;;4973619;28;20790;-76
2020/12/30 11:52:55;;;;;;;19.67;8.77;;;;;;;;;;4970442;28;20652;-76
2020/12/30 11:55:21;;;;;;;10.40;8.60;;;;;;;;;;4973012;28;20734;-75
2020/12/30 11:57:47;;;;;;;10.63;8.30;;;;;;;;;;4971996;28;20216;-75
2020/12/30 12:00:13;;;;;;;10.83;7.57;;;;;;;;;;4972394;28;20177;-75
2020/12/30 12:02:39;;;;;;;11.80;9.80;;;;;;;;;;4974226;28;20430;-75
2020/12/30 12:05:09;;;;;;;11.70;8.67;;;;;;;;;;4973581;28;20509;-75
2020/12/30 12:07:35;;;;;;;12.40;9.40;;;;;;;;;;4972275;28;20867;-75
2020/12/30 12:10:01;;;;;;;8.40;7.50;;;;;;;;;;4970818;28;20192;-77
2020/12/30 12:12:27;;;;;;;9.10;6.97;;;;;;;;;;4969432;28;20528;-76
2020/12/30 12:14:53;;;;;;;10.80;8.43;;;;;;;;;;4972673;28;20508;-75
2020/12/30 12:17:19;;;;;;;11.30;8.17;;;;;;;;;;4971370;28;20265;-76
2020/12/30 12:19:46;;;;;;;11.17;7.57;;;;;;;;;;4974151;28;20839;-77
2020/12/30 12:22:13;;;;;;;9.90;8.63;;;;;;;;;;4971046;28;20546;-76
2020/12/30 12:24:39;;;;;;;8.15;7.28;;;;;;;;;;4963663;28;20184;-76
2020/12/30 12:27:05;;;;;;;15.18;8.93;;;;;;;;;;4961808;28;20212;-76
2020/12/30 12:29:36;;;;;;;11.35;9.48;;;;;;;;;;4967079;28;20608;-77
2020/12/30 12:32:02;;;;;;;10.85;8.13;;;;;;;;;;4968607;28;20271;-77
2020/12/30 12:34:28;;;;;;;15.93;9.23;;;;;;;;;;4973095;28;20594;-77
2020/12/30 12:36:54;;;;;;;9.33;7.93;;;;;;;;;;4970863;28;20491;-77
2020/12/30 12:39:20;;;;;;;11.73;8.45;;;;;;;;;;4971909;28;20439;-77
2020/12/30 12:41:46;;;;;;;12.20;8.47;;;;;;;;;;4969319;28;20189;-76
2020/12/30 12:44:12;;;;;;;10.33;8.90;;;;;;;;;;4971256;28;20422;-76
2020/12/30 12:46:38;;;;;;;14.43;8.57;;;;;;;;;;4972143;28;20478;-76
2020/12/30 12:49:04;;;;;;;11.82;8.80;;;;;;;;;;4973906;28;20428;-76
2020/12/30 12:51:30;;;;;;;10.70;9.10;;;;;;;;;;4974003;28;20188;-75
2020/12/30 12:53:56;;;;;;;10.07;8.13;;;;;;;;;;4971068;28;20443;-77
2020/12/30 12:56:22;;;;;;;13.47;9.10;;;;;;;;;;4969333;28;20896;-76
2020/12/30 12:58:48;;;;;;;16.30;9.05;;;;;;;;;;4973044;28;20478;-76
2020/12/30 13:01:16;;;;;;;16.27;8.90;;;;;;;;;;4973199;28;20220;-75
2020/12/30 13:03:42;;;;;;;12.00;9.57;;;;;;;;;;4973877;28;20436;-76
2020/12/30 13:06:08;;;;;;;15.68;8.18;;;;;;;;;;4973394;28;20205;-77
2020/12/30 13:08:33;;;;;;;12.70;7.70;;;;;;;;;;4973056;28;20184;-76
2020/12/30 13:10:59;;;;;;;10.80;6.83;;;;;;;;;;4973702;28;20416;-76
2020/12/30 13:13:25;;;;;;;11.45;8.18;;;;;;;;;;4972722;28;20466;-76
2020/12/30 13:15:51;;;;;;;11.17;8.10;;;;;;;;;;4972698;28;20212;-76
2020/12/30 13:18:18;;;;;;;12.93;9.15;;;;;;;;;;4972289;28;20447;-76
2020/12/30 13:20:44;;;;;;;13.23;7.78;;;;;;;;;;4974612;28;20184;-76
2020/12/30 13:23:10;;;;;;;15.82;9.10;;;;;;;;;;4968578;28;20180;-76
2020/12/30 13:25:36;;;;;;;12.10;9.05;;;;;;;;;;4972442;28;20280;-76
2020/12/30 13:28:02;;;;;;;11.20;8.90;;;;;;;;;;4971897;28;20269;-76
2020/12/30 13:30:28;;;;;;;10.88;7.95;;;;;;;;;;4973111;28;20465;-77
2020/12/30 13:32:54;;;;;;;14.53;10.27;;;;;;;;;;4971456;28;20207;-76
2020/12/30 13:35:20;;;;;;;11.97;7.80;;;;;;;;;;4972899;28;20493;-76
2020/12/30 13:37:45;;;;;;;11.20;7.60;;;;;;;;;;4971153;28;21062;-76
2020/12/30 13:40:11;;;;;;;10.37;8.63;;;;;;;;;;4970151;28;20267;-77
2020/12/30 13:42:37;;;;;;;14.43;9.57;;;;;;;;;;4967232;28;20440;-77
2020/12/30 13:45:06;;;;;;;14.70;9.83;;;;;;;;;;4972322;28;20431;-77
2020/12/30 13:47:32;;;;;;;10.85;8.65;;;;;;;;;;4972592;28;20550;-76
2020/12/30 13:49:58;;;;;;;11.30;8.98;;;;;;;;;;4969945;28;20644;-76
2020/12/30 13:52:24;;;;;;;10.55;8.73;;;;;;;;;;4972658;28;20199;-76
2020/12/30 13:54:51;;;;;;;10.77;9.73;;;;;;;;;;4971204;28;20610;-77
2020/12/30 13:57:17;;;;;;;12.55;9.02;;;;;;;;;;4957965;28;20460;-77
2020/12/30 13:59:43;;;;;;;12.20;8.07;;;;;;;;;;4970995;28;20180;-76
2020/12/30 14:02:09;;;;;;;9.77;7.95;;;;;;;;;;4972487;28;20211;-76
2020/12/30 14:04:35;;;;;;;12.70;10.40;;;;;;;;;;4959121;28;20181;-76
2020/12/30 14:07:01;;;;;;;14.27;9.70;;;;;;;;;;4963850;28;20463;-77
2020/12/30 14:09:27;;;;;;;12.55;9.00;;;;;;;;;;4955424;28;20442;-76
2020/12/30 14:11:54;;;;;;;14.38;9.52;;;;;;;;;;4959898;28;20192;-77
2020/12/30 14:14:20;;;;;;;12.57;10.25;;;;;;;;;;4970682;28;20177;-76
2020/12/30 14:16:46;;;;;;;12.20;10.63;;;;;;;;;;4971899;28;20593;-76
2020/12/30 14:19:12;;;;;;;12.70;9.13;;;;;;;;;;4978245;28;20430;-76
2020/12/30 14:21:38;;;;;;;12.53;9.63;;;;;;;;;;4962961;28;20810;-76
2020/12/30 14:24:04;;;;;;;12.23;10.48;;;;;;;;;;4962818;28;20431;-76
2020/12/30 14:26:30;;;;;;;12.80;11.13;;;;;;;;;;4961418;28;20255;-76
2020/12/30 14:28:56;;;;;;;14.43;10.13;;;;;;;;;;4968734;28;20201;-76
2020/12/30 14:31:22;;;;;;;15.27;11.20;;;;;;;;;;4971686;28;20434;-76